Airfield :
LOGIN :

Register | Disclaimer

   EN    FR    IT 

 










Legend :    VFR   Marginal VFR   IFR   Intensive IFR   Very Intensive IFR
Visi :
Ceiling :
>= 8 km
>= 3000ft
5 to 8 km
1000 to 3000 ft
1500m to 5 km
500 to 1000 ft
800 to 1500m
200 to 500 ft
< 800m
< 200 ft
Symbols :   Thunderstorms  Fog  Heavy snow  Heavy precipitations  Wind > 20 kt
SIGMETs :     Misc.  Thunderstorms  Icing  Turbulence  Mountain Waves  Volcanic Ashes






- Airport Elevation : 2945 ft
- IATA code : RGS


LEBG - Burgos

CURRENT METAR :
  • 070830Z 02004KT 330V060 CAVOK 14/10 Q1025

EXPIRED METARs :
  • 070800Z 00000KT CAVOK 10/09 Q1025
  • 070730Z 00000KT CAVOK 07/07 Q1025
  • 070700Z 00000KT CAVOK 06/06 Q1025
  • 070630Z 00000KT CAVOK 06/05 Q1025
  • 070600Z VRB02KT CAVOK 06/06 Q1025

TAF TAF LEBG
Valid from the 07 at 09:00 until the 08 at 09:00 UTC


070800Z 0709/0809 VRB05KT 9999 FEW040 TX24/0715Z TN10/0806Z
PROB30
TEMPO 0714/0718 FEW040TCU SCT050
BECMG 0716/0718 05010KT
PROB40
TEMPO 0721/0808 VRB05KT 2000 BCFG BKN003



MET'MAP, your aeronautical weather chart ! - Copyright ORBIFLY December 2007 - Disclaimer

ORBIFLY MET'MAP TEAM :

Programming & Development : Alexandra Zaïnal
Original concept : Baudouin d'Aumeries
Technical & hardware support : Manuel Goepfert
Assistance : Marc-Olivier Méhu




SOURCES & CREDITS :

   NOAA